Puyallup, Washington
Current Conditions -  °F | °C
As of 12:58 AM on Saturday 25 Oct 2014 (Local Time) from KTCM Reporting Station
Overcast Overcast  
Wind Chill: 50°   Ceiling: 8500
Heat Index: 50°   Visibility: 10mi
Dew Point: 50°   Wind: 3mph
Humidity: 99%   Direction: 20°NNE
Pressure: 29.68"   Gusts: NA
Location:  47.19°N, 122.29°W
Report Text: KTCM 250758Z AUTO 02003KT 10SM OVC085 10/10 A2968 RMK AO2 SLP055 T01020101 401340057 $
Loading
Personal Weather Stations






























Interactive Weather Map
Tropical Storm Tracking
New forecast layout! Learn more

10-Day Weather Forecast

Advertisements
Track Severe Weather on mobile